Blidosund — SDKG — position and weather

sailwx.info

Track history (hours):
 
Tides and Currents Weather Stations Pressure Air Temp Water Temp Dewpoint Dewpoint Depression Visibility Wind Speed Wind Dir Waves Ship Positions

Blidosund

Last reported at 2014-Aug-22 04:24 UTC. Time now 2014-Aug-22 21:38 UTC.
Position N 59°20' E 018°05'.

Length 35 m; draft 3 m.

Type: Passenger vessel. MMSI: 265522680.

Date/timePositionNaut miles runAvg speedWind from/ knotsBaromVisibWave heightAir tempDewpointWater temp
2014-Aug-22 04:24N 59°20' E 018°05'0 0.0
2014-Aug-22 03:08N 59°20' E 018°05'0 0.0
2014-Aug-22 02:27N 59°20' E 018°05'0 0.0
2014-Aug-22 01:30N 59°20' E 018°05'0 0.0
2014-Aug-20 20:23N 59°20' E 018°05'0 0.0
2014-Aug-20 16:33N 59°20' E 018°05'0 0.0
2014-Aug-20 04:23N 59°20' E 018°05'0 0.0
2014-Aug-20 03:33N 59°20' E 018°05'0 0.0
2014-Aug-20 02:33N 59°20' E 018°05'0 0.0
2014-Aug-20 01:30N 59°20' E 018°05'0 0.0
2014-Aug-20 00:33N 59°20' E 018°05'0 0.0
2014-Aug-19 23:25N 59°20' E 018°05'0 0.0
2014-Aug-19 22:30N 59°20' E 018°05'0 0.0
2014-Aug-19 21:34N 59°20' E 018°05'0 0.0
2014-Aug-19 20:33N 59°20' E 018°05'0 0.0
2014-Aug-18 21:23N 59°20' E 018°05'0 0.0
2014-Aug-18 20:17N 59°20' E 018°05'0 0.0
2014-Aug-18 16:33N 59°20' E 018°05'  
2014-Aug-14 20:12N 59°20' E 018°05'3 1.1
2014-Aug-14 17:11N 59°20' E 018°11'3 1.9
2014-Aug-14 15:24N 59°20' E 018°05'0 0.0
2014-Aug-14 11:06N 59°20' E 018°05'0 0.0
2014-Aug-14 10:06N 59°20' E 018°05'0 0.0
2014-Aug-14 05:06N 59°20' E 018°05'0 0.0
2014-Aug-14 04:33N 59°20' E 018°05'0 0.0
2014-Aug-14 02:09N 59°20' E 018°05'0 0.0
2014-Aug-14 01:09N 59°20' E 018°05'0 0.0
2014-Aug-14 00:21N 59°20' E 018°05'0 0.0
2014-Aug-13 23:13N 59°20' E 018°05'0 0.0
2014-Aug-13 21:10N 59°20' E 018°05'0 0.0
2014-Aug-13 20:14N 59°20' E 018°05'7 6.6
2014-Aug-13 19:10N 59°22' E 018°17'2 2.1
2014-Aug-13 18:24N 59°22' E 018°20'6 6.7
2014-Aug-13 17:33N 59°19' E 018°11'3 0.5
2014-Aug-13 11:28N 59°20' E 018°05'3 2.9
2014-Aug-13 10:27N 59°19' E 018°10'6 2.8
2014-Aug-13 08:14N 59°23' E 018°20'6 8.4
2014-Aug-13 07:33N 59°20' E 018°11'3 1.1
2014-Aug-13 04:30N 59°20' E 018°05'0 0.0
2014-Aug-13 03:33N 59°20' E 018°05'0 0.0
2014-Aug-13 02:31N 59°20' E 018°05'0 0.0
2014-Aug-13 01:30N 59°20' E 018°05'0 0.0
2014-Aug-13 00:31N 59°20' E 018°05'0 0.0
2014-Aug-12 23:33N 59°20' E 018°05'0 0.0
2014-Aug-12 22:32N 59°20' E 018°05'0 0.0
2014-Aug-12 21:33N 59°20' E 018°05'0 0.0
2014-Aug-12 20:33N 59°20' E 018°05'4 1.3
2014-Aug-12 17:17N 59°20' E 018°12'4 3.4
2014-Aug-12 16:04N 59°20' E 018°05'0 0.0
2014-Aug-12 14:24N 59°20' E 018°05'0 0.0
2014-Aug-12 13:33N 59°20' E 018°05'0 0.0
2014-Aug-12 12:30N 59°20' E 018°05'0 0.0
2014-Aug-12 11:31N 59°20' E 018°05'0 0.0
2014-Aug-12 10:31N 59°20' E 018°05'0 0.0
2014-Aug-12 09:06N 59°20' E 018°05'  
Track history (hours):
 
Tides and Currents Weather Stations Pressure Air Temp Water Temp Dewpoint Dewpoint Depression Visibility Wind Speed Wind Dir Waves Ship Positions

Blidosund

Last reported at 2014-Aug-22 04:24 UTC. Time now 2014-Aug-22 21:38 UTC.
Position N 59°20' E 018°05'.

Length 35 m; draft 3 m.

Type: Passenger vessel. MMSI: 265522680.

Date/timePositionNaut miles runAvg speedWind from/ knotsBaromVisibWave heightAir tempDewpointWater temp
2014-Aug-22 04:24N 59°20' E 018°05'0 0.0
2014-Aug-22 03:08N 59°20' E 018°05'0 0.0
2014-Aug-22 02:27N 59°20' E 018°05'0 0.0
2014-Aug-22 01:30N 59°20' E 018°05'0 0.0
2014-Aug-20 20:23N 59°20' E 018°05'0 0.0
2014-Aug-20 16:33N 59°20' E 018°05'0 0.0
2014-Aug-20 04:23N 59°20' E 018°05'0 0.0
2014-Aug-20 03:33N 59°20' E 018°05'0 0.0
2014-Aug-20 02:33N 59°20' E 018°05'0 0.0
2014-Aug-20 01:30N 59°20' E 018°05'0 0.0
2014-Aug-20 00:33N 59°20' E 018°05'0 0.0
2014-Aug-19 23:25N 59°20' E 018°05'0 0.0
2014-Aug-19 22:30N 59°20' E 018°05'0 0.0
2014-Aug-19 21:34N 59°20' E 018°05'0 0.0
2014-Aug-19 20:33N 59°20' E 018°05'0 0.0
2014-Aug-18 21:23N 59°20' E 018°05'0 0.0
2014-Aug-18 20:17N 59°20' E 018°05'0 0.0
2014-Aug-18 16:33N 59°20' E 018°05'  
2014-Aug-14 20:12N 59°20' E 018°05'3 1.1
2014-Aug-14 17:11N 59°20' E 018°11'3 1.9
2014-Aug-14 15:24N 59°20' E 018°05'0 0.0
2014-Aug-14 11:06N 59°20' E 018°05'0 0.0
2014-Aug-14 10:06N 59°20' E 018°05'0 0.0
2014-Aug-14 05:06N 59°20' E 018°05'0 0.0
2014-Aug-14 04:33N 59°20' E 018°05'0 0.0
2014-Aug-14 02:09N 59°20' E 018°05'0 0.0
2014-Aug-14 01:09N 59°20' E 018°05'0 0.0
2014-Aug-14 00:21N 59°20' E 018°05'0 0.0
2014-Aug-13 23:13N 59°20' E 018°05'0 0.0
2014-Aug-13 21:10N 59°20' E 018°05'0 0.0
2014-Aug-13 20:14N 59°20' E 018°05'7 6.6
2014-Aug-13 19:10N 59°22' E 018°17'2 2.1
2014-Aug-13 18:24N 59°22' E 018°20'6 6.7
2014-Aug-13 17:33N 59°19' E 018°11'3 0.5
2014-Aug-13 11:28N 59°20' E 018°05'3 2.9
2014-Aug-13 10:27N 59°19' E 018°10'6 2.8
2014-Aug-13 08:14N 59°23' E 018°20'6 8.4
2014-Aug-13 07:33N 59°20' E 018°11'3 1.1
2014-Aug-13 04:30N 59°20' E 018°05'0 0.0
2014-Aug-13 03:33N 59°20' E 018°05'0 0.0
2014-Aug-13 02:31N 59°20' E 018°05'0 0.0
2014-Aug-13 01:30N 59°20' E 018°05'0 0.0
2014-Aug-13 00:31N 59°20' E 018°05'0 0.0
2014-Aug-12 23:33N 59°20' E 018°05'0 0.0
2014-Aug-12 22:32N 59°20' E 018°05'0 0.0
2014-Aug-12 21:33N 59°20' E 018°05'0 0.0
2014-Aug-12 20:33N 59°20' E 018°05'4 1.3
2014-Aug-12 17:17N 59°20' E 018°12'4 3.4
2014-Aug-12 16:04N 59°20' E 018°05'0 0.0
2014-Aug-12 14:24N 59°20' E 018°05'0 0.0
2014-Aug-12 13:33N 59°20' E 018°05'0 0.0
2014-Aug-12 12:30N 59°20' E 018°05'0 0.0
2014-Aug-12 11:31N 59°20' E 018°05'0 0.0
2014-Aug-12 10:31N 59°20' E 018°05'0 0.0
2014-Aug-12 09:06N 59°20' E 018°05'  

Dump ship's entire track history